sensor_id;sensor_type;location;lat;lon;timestamp;temperature;humidity
7894;DHT22;51343;51.396;6.656;2023-06-22T00:01:57;21.90;99.90
7894;DHT22;51343;51.396;6.656;2023-06-22T00:04:24;21.80;99.90
7894;DHT22;51343;51.396;6.656;2023-06-22T00:06:51;21.80;99.90
7894;DHT22;51343;51.396;6.656;2023-06-22T00:09:19;21.80;99.90
7894;DHT22;51343;51.396;6.656;2023-06-22T00:11:46;21.90;99.90
7894;DHT22;51343;51.396;6.656;2023-06-22T00:14:12;21.80;99.90
7894;DHT22;51343;51.396;6.656;2023-06-22T00:16:39;21.80;99.90
7894;DHT22;51343;51.396;6.656;2023-06-22T00:19:08;21.80;99.90
7894;DHT22;51343;51.396;6.656;2023-06-22T00:21:37;21.80;99.90
7894;DHT22;51343;51.396;6.656;2023-06-22T00:24:04;21.80;99.90
7894;DHT22;51343;51.396;6.656;2023-06-22T00:26:33;21.80;99.90
7894;DHT22;51343;51.396;6.656;2023-06-22T00:28:59;21.70;99.90
7894;DHT22;51343;51.396;6.656;2023-06-22T00:31:26;21.70;99.90
7894;DHT22;51343;51.396;6.656;2023-06-22T00:33:53;21.70;99.90
7894;DHT22;51343;51.396;6.656;2023-06-22T00:36:19;21.70;99.90
7894;DHT22;51343;51.396;6.656;2023-06-22T00:38:46;21.70;99.90
7894;DHT22;51343;51.396;6.656;2023-06-22T00:41:15;21.70;99.90
7894;DHT22;51343;51.396;6.656;2023-06-22T00:43:43;21.70;99.90
7894;DHT22;51343;51.396;6.656;2023-06-22T00:46:10;21.60;99.90
7894;DHT22;51343;51.396;6.656;2023-06-22T00:48:37;21.70;99.90
7894;DHT22;51343;51.396;6.656;2023-06-22T00:51:07;21.60;99.90
7894;DHT22;51343;51.396;6.656;2023-06-22T00:53:34;21.60;99.90
7894;DHT22;51343;51.396;6.656;2023-06-22T00:56:02;21.60;99.90
7894;DHT22;51343;51.396;6.656;2023-06-22T00:58:29;21.60;99.90
7894;DHT22;51343;51.396;6.656;2023-06-22T01:00:57;21.50;99.90
7894;DHT22;51343;51.396;6.656;2023-06-22T01:03:25;21.50;99.90
7894;DHT22;51343;51.396;6.656;2023-06-22T01:05:52;21.50;99.90
7894;DHT22;51343;51.396;6.656;2023-06-22T01:08:26;21.40;99.90
7894;DHT22;51343;51.396;6.656;2023-06-22T01:10:57;21.30;99.90
7894;DHT22;51343;51.396;6.656;2023-06-22T01:13:28;21.30;99.90
7894;DHT22;51343;51.396;6.656;2023-06-22T01:15:59;21.30;99.90
7894;DHT22;51343;51.396;6.656;2023-06-22T01:18:26;21.20;99.90
7894;DHT22;51343;51.396;6.656;2023-06-22T01:20:55;21.20;99.90
7894;DHT22;51343;51.396;6.656;2023-06-22T01:23:26;21.20;99.90
7894;DHT22;51343;51.396;6.656;2023-06-22T01:25:57;21.20;99.90
7894;DHT22;51343;51.396;6.656;2023-06-22T01:28:46;21.10;99.90
7894;DHT22;51343;51.396;6.656;2023-06-22T01:31:14;21.10;99.90
7894;DHT22;51343;51.396;6.656;2023-06-22T01:33:43;21.00;99.90
7894;DHT22;51343;51.396;6.656;2023-06-22T01:36:10;21.10;99.90
7894;DHT22;51343;51.396;6.656;2023-06-22T01:38:37;21.10;99.90
7894;DHT22;51343;51.396;6.656;2023-06-22T01:41:04;21.00;99.90
7894;DHT22;51343;51.396;6.656;2023-06-22T01:43:31;21.00;99.90
7894;DHT22;51343;51.396;6.656;2023-06-22T01:46:00;21.10;99.90
7894;DHT22;51343;51.396;6.656;2023-06-22T01:48:27;21.00;99.90
7894;DHT22;51343;51.396;6.656;2023-06-22T01:50:54;20.90;99.90
7894;DHT22;51343;51.396;6.656;2023-06-22T01:53:21;20.90;99.90
7894;DHT22;51343;51.396;6.656;2023-06-22T01:55:48;20.80;99.90
7894;DHT22;51343;51.396;6.656;2023-06-22T01:58:15;20.80;99.90
7894;DHT22;51343;51.396;6.656;2023-06-22T02:00:44;20.80;99.90
7894;DHT22;51343;51.396;6.656;2023-06-22T02:03:16;20.80;99.90
7894;DHT22;51343;51.396;6.656;2023-06-22T02:05:46;20.80;99.90
7894;DHT22;51343;51.396;6.656;2023-06-22T02:08:15;20.80;99.90
7894;DHT22;51343;51.396;6.656;2023-06-22T02:10:44;20.70;99.90
7894;DHT22;51343;51.396;6.656;2023-06-22T02:13:12;20.70;99.90
7894;DHT22;51343;51.396;6.656;2023-06-22T02:15:39;20.70;99.90
7894;DHT22;51343;51.396;6.656;2023-06-22T02:18:06;20.70;99.90
7894;DHT22;51343;51.396;6.656;2023-06-22T02:20:35;20.70;99.90
7894;DHT22;51343;51.396;6.656;2023-06-22T02:23:02;20.70;99.90
7894;DHT22;51343;51.396;6.656;2023-06-22T02:25:29;20.70;99.90
7894;DHT22;51343;51.396;6.656;2023-06-22T02:27:56;20.70;99.90
7894;DHT22;51343;51.396;6.656;2023-06-22T02:30:23;20.60;99.90
7894;DHT22;51343;51.396;6.656;2023-06-22T02:32:50;20.60;99.90
7894;DHT22;51343;51.396;6.656;2023-06-22T02:35:24;20.60;99.90
7894;DHT22;51343;51.396;6.656;2023-06-22T02:37:52;20.60;99.90
7894;DHT22;51343;51.396;6.656;2023-06-22T02:40:19;20.60;99.90
7894;DHT22;51343;51.396;6.656;2023-06-22T02:42:46;20.60;99.90
7894;DHT22;51343;51.396;6.656;2023-06-22T02:45:13;20.60;99.90
7894;DHT22;51343;51.396;6.656;2023-06-22T02:47:39;20.60;99.90
7894;DHT22;51343;51.396;6.656;2023-06-22T02:50:06;20.60;99.90
7894;DHT22;51343;51.396;6.656;2023-06-22T02:52:33;20.60;99.90
7894;DHT22;51343;51.396;6.656;2023-06-22T02:55:01;20.60;99.90
7894;DHT22;51343;51.396;6.656;2023-06-22T02:57:28;20.60;99.90
7894;DHT22;51343;51.396;6.656;2023-06-22T02:59:55;20.60;99.90
7894;DHT22;51343;51.396;6.656;2023-06-22T03:02:22;20.50;99.90
7894;DHT22;51343;51.396;6.656;2023-06-22T06:04:29;20.70;99.90
7894;DHT22;51343;51.396;6.656;2023-06-22T06:07:02;20.70;99.90
7894;DHT22;51343;51.396;6.656;2023-06-22T06:09:31;20.70;99.90
7894;DHT22;51343;51.396;6.656;2023-06-22T06:12:05;20.80;99.90
7894;DHT22;51343;51.396;6.656;2023-06-22T06:14:32;20.80;99.90
7894;DHT22;51343;51.396;6.656;2023-06-22T06:16:59;20.90;99.90
7894;DHT22;51343;51.396;6.656;2023-06-22T06:19:25;20.90;99.90
7894;DHT22;51343;51.396;6.656;2023-06-22T06:21:53;20.90;99.90
7894;DHT22;51343;51.396;6.656;2023-06-22T06:24:20;21.00;99.90
7894;DHT22;51343;51.396;6.656;2023-06-22T06:26:47;21.00;99.90
7894;DHT22;51343;51.396;6.656;2023-06-22T06:29:13;21.00;99.90
7894;DHT22;51343;51.396;6.656;2023-06-22T06:31:41;21.10;99.90
7894;DHT22;51343;51.396;6.656;2023-06-22T06:34:08;21.10;99.90
7894;DHT22;51343;51.396;6.656;2023-06-22T06:36:35;21.20;99.90
7894;DHT22;51343;51.396;6.656;2023-06-22T06:39:03;21.10;99.90
7894;DHT22;51343;51.396;6.656;2023-06-22T06:41:30;21.10;99.90
7894;DHT22;51343;51.396;6.656;2023-06-22T06:43:57;21.20;99.90
7894;DHT22;51343;51.396;6.656;2023-06-22T06:46:24;21.20;99.90
7894;DHT22;51343;51.396;6.656;2023-06-22T06:48:50;21.20;99.90
7894;DHT22;51343;51.396;6.656;2023-06-22T06:51:17;21.30;99.90
7894;DHT22;51343;51.396;6.656;2023-06-22T06:53:44;21.40;99.90
7894;DHT22;51343;51.396;6.656;2023-06-22T06:56:12;21.40;99.90
7894;DHT22;51343;51.396;6.656;2023-06-22T06:58:40;21.40;99.90
7894;DHT22;51343;51.396;6.656;2023-06-22T07:01:07;21.50;99.90
7894;DHT22;51343;51.396;6.656;2023-06-22T07:03:34;21.60;99.90
7894;DHT22;51343;51.396;6.656;2023-06-22T07:06:00;21.60;99.90
7894;DHT22;51343;51.396;6.656;2023-06-22T07:08:27;21.60;99.90
7894;DHT22;51343;51.396;6.656;2023-06-22T07:10:53;21.70;99.90
7894;DHT22;51343;51.396;6.656;2023-06-22T07:13:21;21.70;99.90
7894;DHT22;51343;51.396;6.656;2023-06-22T07:15:48;21.70;99.90
7894;DHT22;51343;51.396;6.656;2023-06-22T07:18:15;21.70;99.90
7894;DHT22;51343;51.396;6.656;2023-06-22T07:20:41;21.80;99.90
7894;DHT22;51343;51.396;6.656;2023-06-22T07:23:08;21.80;99.90
7894;DHT22;51343;51.396;6.656;2023-06-22T07:25:35;21.80;99.90
7894;DHT22;51343;51.396;6.656;2023-06-22T07:28:02;22.00;99.90
7894;DHT22;51343;51.396;6.656;2023-06-22T07:30:30;22.10;99.90
7894;DHT22;51343;51.396;6.656;2023-06-22T07:32:57;22.10;99.90
7894;DHT22;51343;51.396;6.656;2023-06-22T07:35:29;22.20;99.90
7894;DHT22;51343;51.396;6.656;2023-06-22T07:37:59;22.20;99.90
7894;DHT22;51343;51.396;6.656;2023-06-22T07:40:26;22.20;99.90
7894;DHT22;51343;51.396;6.656;2023-06-22T07:42:52;22.20;99.90
7894;DHT22;51343;51.396;6.656;2023-06-22T07:45:19;22.10;99.90
7894;DHT22;51343;51.396;6.656;2023-06-22T07:47:47;21.90;99.90
7894;DHT22;51343;51.396;6.656;2023-06-22T07:50:14;21.80;99.90
7894;DHT22;51343;51.396;6.656;2023-06-22T07:52:40;21.80;99.90
7894;DHT22;51343;51.396;6.656;2023-06-22T07:55:07;21.60;99.90
7894;DHT22;51343;51.396;6.656;2023-06-22T07:57:34;21.60;99.90
7894;DHT22;51343;51.396;6.656;2023-06-22T08:00:01;21.60;99.90
7894;DHT22;51343;51.396;6.656;2023-06-22T08:02:33;21.60;99.90
7894;DHT22;51343;51.396;6.656;2023-06-22T08:05:01;21.50;99.90
7894;DHT22;51343;51.396;6.656;2023-06-22T08:07:29;21.50;99.90
7894;DHT22;51343;51.396;6.656;2023-06-22T08:09:58;21.40;99.90
7894;DHT22;51343;51.396;6.656;2023-06-22T08:12:27;21.40;99.90
7894;DHT22;51343;51.396;6.656;2023-06-22T08:14:53;21.40;99.90
7894;DHT22;51343;51.396;6.656;2023-06-22T08:17:20;21.50;99.90
7894;DHT22;51343;51.396;6.656;2023-06-22T08:19:47;21.60;99.90
7894;DHT22;51343;51.396;6.656;2023-06-22T08:22:15;21.70;99.90
7894;DHT22;51343;51.396;6.656;2023-06-22T08:24:41;21.80;99.90
7894;DHT22;51343;51.396;6.656;2023-06-22T08:27:09;21.90;99.90
7894;DHT22;51343;51.396;6.656;2023-06-22T08:29:37;22.10;99.90
7894;DHT22;51343;51.396;6.656;2023-06-22T08:32:04;22.20;99.90
7894;DHT22;51343;51.396;6.656;2023-06-22T08:34:30;22.20;99.90
7894;DHT22;51343;51.396;6.656;2023-06-22T08:36:57;22.20;99.90
7894;DHT22;51343;51.396;6.656;2023-06-22T08:39:25;22.20;99.90
7894;DHT22;51343;51.396;6.656;2023-06-22T08:41:53;22.20;99.90
7894;DHT22;51343;51.396;6.656;2023-06-22T08:44:19;22.10;99.90
7894;DHT22;51343;51.396;6.656;2023-06-22T08:46:46;22.10;99.90
7894;DHT22;51343;51.396;6.656;2023-06-22T08:49:12;22.10;99.90
7894;DHT22;51343;51.396;6.656;2023-06-22T08:51:39;22.00;99.90
7894;DHT22;51343;51.396;6.656;2023-06-22T08:54:06;22.10;99.90
7894;DHT22;51343;51.396;6.656;2023-06-22T08:56:34;22.10;99.90
7894;DHT22;51343;51.396;6.656;2023-06-22T08:59:00;22.10;99.90
7894;DHT22;51343;51.396;6.656;2023-06-22T09:01:27;22.10;99.90
7894;DHT22;51343;51.396;6.656;2023-06-22T09:03:54;22.20;99.90
7894;DHT22;51343;51.396;6.656;2023-06-22T09:06:24;22.30;99.90
7894;DHT22;51343;51.396;6.656;2023-06-22T09:08:51;22.40;99.90
7894;DHT22;51343;51.396;6.656;2023-06-22T09:11:17;22.60;99.90
7894;DHT22;51343;51.396;6.656;2023-06-22T09:13:45;22.70;99.90
7894;DHT22;51343;51.396;6.656;2023-06-22T09:16:12;22.90;99.90
7894;DHT22;51343;51.396;6.656;2023-06-22T09:18:39;23.10;99.90
7894;DHT22;51343;51.396;6.656;2023-06-22T09:21:06;23.30;99.90
7894;DHT22;51343;51.396;6.656;2023-06-22T09:23:33;23.30;99.90
7894;DHT22;51343;51.396;6.656;2023-06-22T09:26:00;23.50;99.90
7894;DHT22;51343;51.396;6.656;2023-06-22T09:28:26;23.60;99.90
7894;DHT22;51343;51.396;6.656;2023-06-22T09:30:54;23.60;99.90
7894;DHT22;51343;51.396;6.656;2023-06-22T09:33:23;23.50;99.90
7894;DHT22;51343;51.396;6.656;2023-06-22T09:35:50;23.60;99.90
7894;DHT22;51343;51.396;6.656;2023-06-22T09:38:16;23.70;99.90
7894;DHT22;51343;51.396;6.656;2023-06-22T09:40:43;23.80;99.90
7894;DHT22;51343;51.396;6.656;2023-06-22T09:43:10;23.70;99.90
7894;DHT22;51343;51.396;6.656;2023-06-22T09:45:37;23.80;99.90
7894;DHT22;51343;51.396;6.656;2023-06-22T09:48:05;23.90;99.90
7894;DHT22;51343;51.396;6.656;2023-06-22T09:50:35;24.10;99.90
7894;DHT22;51343;51.396;6.656;2023-06-22T09:53:01;24.30;99.90
7894;DHT22;51343;51.396;6.656;2023-06-22T09:55:28;24.60;99.90
7894;DHT22;51343;51.396;6.656;2023-06-22T09:57:55;24.80;99.90
7894;DHT22;51343;51.396;6.656;2023-06-22T10:00:21;24.90;99.90
7894;DHT22;51343;51.396;6.656;2023-06-22T10:02:48;25.10;99.90
7894;DHT22;51343;51.396;6.656;2023-06-22T10:05:17;25.20;99.90
7894;DHT22;51343;51.396;6.656;2023-06-22T10:07:44;25.50;99.90
7894;DHT22;51343;51.396;6.656;2023-06-22T10:10:10;25.50;99.90
7894;DHT22;51343;51.396;6.656;2023-06-22T10:12:40;25.30;99.90
7894;DHT22;51343;51.396;6.656;2023-06-22T10:15:07;25.20;99.90
7894;DHT22;51343;51.396;6.656;2023-06-22T10:17:34;25.30;99.90
7894;DHT22;51343;51.396;6.656;2023-06-22T10:20:00;25.30;99.90
7894;DHT22;51343;51.396;6.656;2023-06-22T10:22:32;25.20;99.90
7894;DHT22;51343;51.396;6.656;2023-06-22T10:24:59;25.30;99.90
7894;DHT22;51343;51.396;6.656;2023-06-22T10:27:25;25.30;99.90
7894;DHT22;51343;51.396;6.656;2023-06-22T10:29:52;25.40;99.90
7894;DHT22;51343;51.396;6.656;2023-06-22T10:32:19;25.20;99.90
7894;DHT22;51343;51.396;6.656;2023-06-22T10:34:45;25.20;99.90
7894;DHT22;51343;51.396;6.656;2023-06-22T10:37:12;25.10;99.90
7894;DHT22;51343;51.396;6.656;2023-06-22T10:39:40;25.10;99.90
7894;DHT22;51343;51.396;6.656;2023-06-22T10:42:07;24.90;99.90
7894;DHT22;51343;51.396;6.656;2023-06-22T10:44:33;24.90;99.90
7894;DHT22;51343;51.396;6.656;2023-06-22T10:47:00;24.90;99.90
7894;DHT22;51343;51.396;6.656;2023-06-22T10:49:27;24.80;99.90
7894;DHT22;51343;51.396;6.656;2023-06-22T10:51:53;24.70;99.90
7894;DHT22;51343;51.396;6.656;2023-06-22T10:54:20;24.50;99.90
7894;DHT22;51343;51.396;6.656;2023-06-22T10:56:48;24.40;99.90
7894;DHT22;51343;51.396;6.656;2023-06-22T10:59:15;24.30;99.90
7894;DHT22;51343;51.396;6.656;2023-06-22T11:01:41;24.20;99.90
7894;DHT22;51343;51.396;6.656;2023-06-22T11:04:08;24.10;99.90
7894;DHT22;51343;51.396;6.656;2023-06-22T11:06:35;24.10;99.90
7894;DHT22;51343;51.396;6.656;2023-06-22T11:09:01;24.00;99.90
7894;DHT22;51343;51.396;6.656;2023-06-22T11:11:29;23.90;99.90
7894;DHT22;51343;51.396;6.656;2023-06-22T11:13:57;23.80;99.90
7894;DHT22;51343;51.396;6.656;2023-06-22T11:16:23;23.70;99.90
7894;DHT22;51343;51.396;6.656;2023-06-22T11:18:50;23.80;99.90
7894;DHT22;51343;51.396;6.656;2023-06-22T11:21:17;23.80;99.90
7894;DHT22;51343;51.396;6.656;2023-06-22T11:23:43;23.60;99.90
7894;DHT22;51343;51.396;6.656;2023-06-22T11:26:10;23.50;99.90
7894;DHT22;51343;51.396;6.656;2023-06-22T11:28:37;23.30;99.90
7894;DHT22;51343;51.396;6.656;2023-06-22T11:31:12;23.00;99.90
7894;DHT22;51343;51.396;6.656;2023-06-22T11:33:41;22.80;99.90
7894;DHT22;51343;51.396;6.656;2023-06-22T11:36:07;22.40;99.90
7894;DHT22;51343;51.396;6.656;2023-06-22T11:38:34;22.10;99.90
7894;DHT22;51343;51.396;6.656;2023-06-22T11:41:04;21.90;99.90
7894;DHT22;51343;51.396;6.656;2023-06-22T11:43:31;21.80;99.90
7894;DHT22;51343;51.396;6.656;2023-06-22T11:45:58;21.60;99.90
7894;DHT22;51343;51.396;6.656;2023-06-22T11:48:26;21.50;99.90
7894;DHT22;51343;51.396;6.656;2023-06-22T11:50:52;21.30;99.90
7894;DHT22;51343;51.396;6.656;2023-06-22T11:53:20;21.20;99.90
7894;DHT22;51343;51.396;6.656;2023-06-22T11:55:47;21.10;99.90
7894;DHT22;51343;51.396;6.656;2023-06-22T11:58:14;21.00;99.90
7894;DHT22;51343;51.396;6.656;2023-06-22T12:00:41;21.00;99.90
7894;DHT22;51343;51.396;6.656;2023-06-22T12:03:08;20.90;99.90
7894;DHT22;51343;51.396;6.656;2023-06-22T12:05:36;20.90;99.90
7894;DHT22;51343;51.396;6.656;2023-06-22T12:08:02;20.90;99.90
7894;DHT22;51343;51.396;6.656;2023-06-22T12:10:29;20.90;99.90
7894;DHT22;51343;51.396;6.656;2023-06-22T12:12:56;21.00;99.90
7894;DHT22;51343;51.396;6.656;2023-06-22T12:15:25;21.00;99.90
7894;DHT22;51343;51.396;6.656;2023-06-22T12:17:52;21.10;99.90
7894;DHT22;51343;51.396;6.656;2023-06-22T12:20:18;21.20;99.90
7894;DHT22;51343;51.396;6.656;2023-06-22T12:22:46;21.40;99.90
7894;DHT22;51343;51.396;6.656;2023-06-22T12:25:16;21.60;99.90
7894;DHT22;51343;51.396;6.656;2023-06-22T12:27:43;21.90;99.90
7894;DHT22;51343;51.396;6.656;2023-06-22T12:30:10;22.00;99.90
7894;DHT22;51343;51.396;6.656;2023-06-22T12:32:36;21.90;99.90
7894;DHT22;51343;51.396;6.656;2023-06-22T12:35:03;22.00;99.90
7894;DHT22;51343;51.396;6.656;2023-06-22T12:37:30;22.00;99.90
7894;DHT22;51343;51.396;6.656;2023-06-22T12:39:59;22.00;99.90
7894;DHT22;51343;51.396;6.656;2023-06-22T12:42:25;22.00;99.90
7894;DHT22;51343;51.396;6.656;2023-06-22T12:44:53;22.00;99.90
7894;DHT22;51343;51.396;6.656;2023-06-22T12:47:20;22.00;99.90
7894;DHT22;51343;51.396;6.656;2023-06-22T12:49:46;22.00;99.90
7894;DHT22;51343;51.396;6.656;2023-06-22T12:52:13;22.00;99.90
7894;DHT22;51343;51.396;6.656;2023-06-22T12:54:39;22.00;99.90
7894;DHT22;51343;51.396;6.656;2023-06-22T12:57:07;22.00;99.90
7894;DHT22;51343;51.396;6.656;2023-06-22T12:59:34;22.10;99.90
7894;DHT22;51343;51.396;6.656;2023-06-22T13:02:01;22.00;99.90
7894;DHT22;51343;51.396;6.656;2023-06-22T13:04:28;22.00;99.90
7894;DHT22;51343;51.396;6.656;2023-06-22T13:06:55;22.00;99.90
7894;DHT22;51343;51.396;6.656;2023-06-22T13:09:21;21.80;99.90
7894;DHT22;51343;51.396;6.656;2023-06-22T13:11:48;21.70;99.90
7894;DHT22;51343;51.396;6.656;2023-06-22T13:14:16;21.70;99.90
7894;DHT22;51343;51.396;6.656;2023-06-22T13:16:43;21.70;99.90
7894;DHT22;51343;51.396;6.656;2023-06-22T13:19:10;21.70;99.90
7894;DHT22;51343;51.396;6.656;2023-06-22T13:21:36;21.70;99.90
7894;DHT22;51343;51.396;6.656;2023-06-22T13:24:03;21.70;99.90
7894;DHT22;51343;51.396;6.656;2023-06-22T13:26:31;21.60;99.90
7894;DHT22;51343;51.396;6.656;2023-06-22T13:28:58;21.60;99.90
7894;DHT22;51343;51.396;6.656;2023-06-22T13:31:26;21.70;99.90
7894;DHT22;51343;51.396;6.656;2023-06-22T13:33:53;21.70;99.90
7894;DHT22;51343;51.396;6.656;2023-06-22T13:36:19;21.70;99.90
7894;DHT22;51343;51.396;6.656;2023-06-22T13:38:48;21.70;99.90
7894;DHT22;51343;51.396;6.656;2023-06-22T13:41:15;21.80;99.90
7894;DHT22;51343;51.396;6.656;2023-06-22T13:43:41;21.80;99.90
7894;DHT22;51343;51.396;6.656;2023-06-22T13:46:08;21.80;99.90
7894;DHT22;51343;51.396;6.656;2023-06-22T13:48:36;21.90;99.90
7894;DHT22;51343;51.396;6.656;2023-06-22T13:51:02;22.10;99.90
7894;DHT22;51343;51.396;6.656;2023-06-22T13:53:29;22.10;99.90
7894;DHT22;51343;51.396;6.656;2023-06-22T13:55:56;22.00;99.90
7894;DHT22;51343;51.396;6.656;2023-06-22T13:58:22;22.10;99.90
7894;DHT22;51343;51.396;6.656;2023-06-22T14:00:49;22.00;99.90
7894;DHT22;51343;51.396;6.656;2023-06-22T14:03:16;22.10;99.90
7894;DHT22;51343;51.396;6.656;2023-06-22T14:05:43;22.10;99.90
7894;DHT22;51343;51.396;6.656;2023-06-22T14:08:11;22.10;99.90
7894;DHT22;51343;51.396;6.656;2023-06-22T14:10:37;22.00;99.90
7894;DHT22;51343;51.396;6.656;2023-06-22T14:13:04;22.00;99.90
7894;DHT22;51343;51.396;6.656;2023-06-22T14:15:32;22.00;99.90
7894;DHT22;51343;51.396;6.656;2023-06-22T14:17:58;22.00;99.90
7894;DHT22;51343;51.396;6.656;2023-06-22T14:20:25;21.90;99.90
7894;DHT22;51343;51.396;6.656;2023-06-22T14:22:53;21.80;99.90
7894;DHT22;51343;51.396;6.656;2023-06-22T14:25:20;21.80;99.90
7894;DHT22;51343;51.396;6.656;2023-06-22T14:27:47;21.80;99.90
7894;DHT22;51343;51.396;6.656;2023-06-22T14:30:14;21.70;99.90
7894;DHT22;51343;51.396;6.656;2023-06-22T14:32:42;21.70;99.90
7894;DHT22;51343;51.396;6.656;2023-06-22T14:35:09;21.70;99.90
7894;DHT22;51343;51.396;6.656;2023-06-22T14:37:36;21.70;99.90
7894;DHT22;51343;51.396;6.656;2023-06-22T14:40:04;21.60;99.90
7894;DHT22;51343;51.396;6.656;2023-06-22T14:42:31;21.60;99.90
7894;DHT22;51343;51.396;6.656;2023-06-22T14:44:57;21.50;99.90
7894;DHT22;51343;51.396;6.656;2023-06-22T14:47:24;21.50;99.90
7894;DHT22;51343;51.396;6.656;2023-06-22T14:49:51;21.50;99.90
7894;DHT22;51343;51.396;6.656;2023-06-22T14:52:17;21.50;99.90
7894;DHT22;51343;51.396;6.656;2023-06-22T14:54:44;21.40;99.90
7894;DHT22;51343;51.396;6.656;2023-06-22T14:57:12;21.30;99.90
7894;DHT22;51343;51.396;6.656;2023-06-22T14:59:43;21.30;99.90
7894;DHT22;51343;51.396;6.656;2023-06-22T15:02:09;21.40;99.90
7894;DHT22;51343;51.396;6.656;2023-06-22T15:04:36;21.40;99.90
7894;DHT22;51343;51.396;6.656;2023-06-22T15:07:03;21.40;99.90
7894;DHT22;51343;51.396;6.656;2023-06-22T15:09:30;21.30;99.90
7894;DHT22;51343;51.396;6.656;2023-06-22T15:11:56;21.40;99.90
7894;DHT22;51343;51.396;6.656;2023-06-22T15:14:24;21.40;99.90
7894;DHT22;51343;51.396;6.656;2023-06-22T15:16:51;21.30;99.90
7894;DHT22;51343;51.396;6.656;2023-06-22T15:19:18;21.30;99.90
7894;DHT22;51343;51.396;6.656;2023-06-22T15:21:45;21.30;99.90
7894;DHT22;51343;51.396;6.656;2023-06-22T15:24:11;21.20;99.90
7894;DHT22;51343;51.396;6.656;2023-06-22T15:26:38;21.20;99.90
7894;DHT22;51343;51.396;6.656;2023-06-22T15:29:05;21.10;99.90
7894;DHT22;51343;51.396;6.656;2023-06-22T15:31:33;21.10;99.90
7894;DHT22;51343;51.396;6.656;2023-06-22T15:34:00;21.10;99.90
7894;DHT22;51343;51.396;6.656;2023-06-22T15:36:28;21.00;99.90
7894;DHT22;51343;51.396;6.656;2023-06-22T15:38:55;21.00;99.90
7894;DHT22;51343;51.396;6.656;2023-06-22T15:41:22;21.00;99.90
7894;DHT22;51343;51.396;6.656;2023-06-22T15:43:48;21.00;99.90
7894;DHT22;51343;51.396;6.656;2023-06-22T15:46:16;21.00;99.90
7894;DHT22;51343;51.396;6.656;2023-06-22T15:48:45;20.90;99.90
7894;DHT22;51343;51.396;6.656;2023-06-22T15:51:13;20.90;99.90
7894;DHT22;51343;51.396;6.656;2023-06-22T15:53:40;20.90;99.90
7894;DHT22;51343;51.396;6.656;2023-06-22T15:56:06;20.80;99.90
7894;DHT22;51343;51.396;6.656;2023-06-22T15:58:34;20.80;99.90
7894;DHT22;51343;51.396;6.656;2023-06-22T16:01:03;20.70;99.90
7894;DHT22;51343;51.396;6.656;2023-06-22T16:03:30;20.70;99.90
7894;DHT22;51343;51.396;6.656;2023-06-22T16:05:58;20.70;99.90
7894;DHT22;51343;51.396;6.656;2023-06-22T16:08:25;20.70;99.90
7894;DHT22;51343;51.396;6.656;2023-06-22T16:10:55;20.70;99.90
7894;DHT22;51343;51.396;6.656;2023-06-22T16:13:22;20.60;99.90
7894;DHT22;51343;51.396;6.656;2023-06-22T16:15:50;20.60;99.90
7894;DHT22;51343;51.396;6.656;2023-06-22T16:18:17;20.60;99.90
7894;DHT22;51343;51.396;6.656;2023-06-22T16:20:44;20.60;99.90
7894;DHT22;51343;51.396;6.656;2023-06-22T16:23:16;20.50;99.90
7894;DHT22;51343;51.396;6.656;2023-06-22T16:28:16;20.30;99.90
7894;DHT22;51343;51.396;6.656;2023-06-22T16:30:49;20.20;99.90
7894;DHT22;51343;51.396;6.656;2023-06-22T16:33:17;20.10;99.90
7894;DHT22;51343;51.396;6.656;2023-06-22T16:35:46;20.10;99.90
7894;DHT22;51343;51.396;6.656;2023-06-22T16:38:14;19.90;99.90
7894;DHT22;51343;51.396;6.656;2023-06-22T16:40:41;19.90;99.90
7894;DHT22;51343;51.396;6.656;2023-06-22T16:43:08;19.90;99.90
7894;DHT22;51343;51.396;6.656;2023-06-22T16:45:34;19.80;99.90
7894;DHT22;51343;51.396;6.656;2023-06-22T16:48:01;19.70;99.90
7894;DHT22;51343;51.396;6.656;2023-06-22T16:50:28;19.80;99.90
7894;DHT22;51343;51.396;6.656;2023-06-22T16:52:56;19.80;99.90
7894;DHT22;51343;51.396;6.656;2023-06-22T16:55:24;19.70;99.90
7894;DHT22;51343;51.396;6.656;2023-06-22T16:57:51;19.60;99.90
7894;DHT22;51343;51.396;6.656;2023-06-22T17:00:19;19.60;99.90
7894;DHT22;51343;51.396;6.656;2023-06-22T17:02:47;19.70;99.90
7894;DHT22;51343;51.396;6.656;2023-06-22T17:05:18;19.60;99.90
7894;DHT22;51343;51.396;6.656;2023-06-22T17:07:50;19.60;99.90
7894;DHT22;51343;51.396;6.656;2023-06-22T17:10:19;19.60;99.90
7894;DHT22;51343;51.396;6.656;2023-06-22T17:12:49;19.50;99.90
7894;DHT22;51343;51.396;6.656;2023-06-22T17:15:15;19.60;99.90
7894;DHT22;51343;51.396;6.656;2023-06-22T17:17:42;19.50;99.90
7894;DHT22;51343;51.396;6.656;2023-06-22T17:20:10;19.50;99.90
7894;DHT22;51343;51.396;6.656;2023-06-22T17:22:43;19.50;99.90
7894;DHT22;51343;51.396;6.656;2023-06-22T17:25:11;19.40;99.90
7894;DHT22;51343;51.396;6.656;2023-06-22T17:27:46;19.50;99.90
7894;DHT22;51343;51.396;6.656;2023-06-22T17:30:20;19.50;99.90
7894;DHT22;51343;51.396;6.656;2023-06-22T17:32:48;19.50;99.90
7894;DHT22;51343;51.396;6.656;2023-06-22T17:35:17;19.40;99.90
7894;DHT22;51343;51.396;6.656;2023-06-22T17:37:48;19.40;99.90
7894;DHT22;51343;51.396;6.656;2023-06-22T17:40:17;19.40;99.90
7894;DHT22;51343;51.396;6.656;2023-06-22T17:42:45;19.40;99.90
7894;DHT22;51343;51.396;6.656;2023-06-22T17:45:32;19.40;99.90
7894;DHT22;51343;51.396;6.656;2023-06-22T17:48:16;19.40;99.90
7894;DHT22;51343;51.396;6.656;2023-06-22T17:50:47;19.40;99.90
7894;DHT22;51343;51.396;6.656;2023-06-22T17:53:17;19.40;99.90
7894;DHT22;51343;51.396;6.656;2023-06-22T17:55:45;19.40;99.90
7894;DHT22;51343;51.396;6.656;2023-06-22T17:58:13;19.40;99.90
7894;DHT22;51343;51.396;6.656;2023-06-22T18:00:56;19.40;99.90
7894;DHT22;51343;51.396;6.656;2023-06-22T18:03:24;19.40;99.90
7894;DHT22;51343;51.396;6.656;2023-06-22T18:05:54;19.40;99.90
7894;DHT22;51343;51.396;6.656;2023-06-22T18:08:22;19.30;99.90
7894;DHT22;51343;51.396;6.656;2023-06-22T18:10:51;19.30;99.90
7894;DHT22;51343;51.396;6.656;2023-06-22T18:13:19;19.30;99.90
7894;DHT22;51343;51.396;6.656;2023-06-22T18:15:46;19.30;99.90
7894;DHT22;51343;51.396;6.656;2023-06-22T18:18:14;19.20;99.90
7894;DHT22;51343;51.396;6.656;2023-06-22T18:20:41;19.20;99.90
7894;DHT22;51343;51.396;6.656;2023-06-22T18:23:09;19.10;99.90
7894;DHT22;51343;51.396;6.656;2023-06-22T18:25:36;19.10;99.90
7894;DHT22;51343;51.396;6.656;2023-06-22T18:28:04;19.00;99.90
7894;DHT22;51343;51.396;6.656;2023-06-22T18:30:32;19.00;99.90
7894;DHT22;51343;51.396;6.656;2023-06-22T18:32:59;18.90;99.90
7894;DHT22;51343;51.396;6.656;2023-06-22T18:35:27;18.90;99.90
7894;DHT22;51343;51.396;6.656;2023-06-22T18:37:55;18.80;99.90
7894;DHT22;51343;51.396;6.656;2023-06-22T18:40:24;18.70;99.90
7894;DHT22;51343;51.396;6.656;2023-06-22T18:42:51;18.70;99.90
7894;DHT22;51343;51.396;6.656;2023-06-22T18:45:27;18.60;99.90
7894;DHT22;51343;51.396;6.656;2023-06-22T18:48:00;18.60;99.90
7894;DHT22;51343;51.396;6.656;2023-06-22T18:50:41;18.60;99.90